Time;durP1;ratioP1;P1;durP2;ratioP2;P2;SDS_P1;SDS_P2;PMS_P1;PMS_P2;Temp;Humidity;BMP_temperature;BMP_pressure;BME280_temperature;BME280_humidity;BME280_pressure;Samples;Min_cycle;Max_cycle;Signal;HPM_P1;HPM_P2
2023/05/03 00:01:47;;;;;;;12.37;10.77;;;;;;;-143.84;91.02;43733.53;5150468;27;20429;-65
2023/05/03 00:04:17;;;;;;;15.50;10.93;;;;;;;-143.84;90.32;43722.13;5150324;27;20486;-65
2023/05/03 00:06:44;;;;;;;9.87;8.83;;;;;;;-143.84;90.55;43714.50;5150218;27;20457;-65
2023/05/03 00:09:12;;;;;;;16.23;10.73;;;;;;;-143.84;90.36;43716.41;5150389;27;20490;-65
2023/05/03 00:11:41;;;;;;;19.00;12.10;;;;;;;-143.84;90.16;43712.59;5150326;27;20867;-64
2023/05/03 00:14:08;;;;;;;13.20;10.57;;;;;;;-143.84;90.51;43706.91;5150168;27;20502;-64
2023/05/03 00:16:35;;;;;;;13.80;9.93;;;;;;;-143.84;90.25;43720.22;5150363;27;20490;-64
2023/05/03 00:19:03;;;;;;;11.10;10.00;;;;;;;-143.84;89.90;43712.59;5150119;27;20494;-64
2023/05/03 00:21:30;;;;;;;12.70;10.50;;;;;;;-143.84;90.15;43705.00;5150302;27;20437;-64
2023/05/03 00:23:57;;;;;;;13.50;10.33;;;;;;;-143.84;90.08;43716.41;5150067;27;20430;-64
2023/05/03 00:26:25;;;;;;;13.90;10.27;;;;;;;-143.84;90.05;43685.97;5150289;27;20512;-64
2023/05/03 00:28:53;;;;;;;17.50;11.23;;;;;;;-143.84;90.11;43708.81;5150215;27;20434;-64
2023/05/03 00:31:20;;;;;;;20.23;10.17;;;;;;;-143.84;90.31;43720.22;5150073;27;20487;-64
2023/05/03 00:33:48;;;;;;;10.80;9.70;;;;;;;-143.84;90.04;43725.94;5150330;27;20858;-64
2023/05/03 00:36:15;;;;;;;10.20;9.20;;;;;;;-143.84;89.40;43746.88;5150028;27;20433;-64
2023/05/03 00:38:43;;;;;;;16.43;11.13;;;;;;;-143.84;89.10;43758.28;5150047;27;20529;-65
2023/05/03 00:41:11;;;;;;;11.37;10.07;;;;;;;-143.84;89.43;43735.44;5149977;27;20446;-65
2023/05/03 00:43:39;;;;;;;13.13;10.40;;;;;;;-143.84;89.27;43769.72;5149979;27;20442;-65
2023/05/03 00:46:10;;;;;;;11.77;10.67;;;;;;;-143.84;88.89;43765.91;5149987;27;20458;-65
2023/05/03 00:48:37;;;;;;;16.10;10.83;;;;;;;-143.84;88.39;43798.25;5158477;27;20502;-65
2023/05/03 00:51:06;;;;;;;13.50;10.50;;;;;;;-143.84;88.50;43802.06;5174778;27;20853;-65
2023/05/03 00:53:34;;;;;;;12.23;10.93;;;;;;;-143.84;88.25;43845.84;5174642;27;20425;-65
2023/05/03 00:56:01;;;;;;;10.33;9.20;;;;;;;-143.84;88.00;43891.53;5174792;27;20489;-65
2023/05/03 00:58:28;;;;;;;11.20;9.60;;;;;;;-143.84;87.70;44028.59;5174272;27;20472;-65
2023/05/03 01:00:55;;;;;;;10.70;9.60;;;;;;;-143.84;87.19;44059.03;5174896;27;20457;-65
2023/05/03 01:03:24;;;;;;;10.83;9.70;;;;;;;-143.84;86.91;44146.63;5174257;27;20437;-64
2023/05/03 01:06:03;;;;;;;14.50;10.50;;;;;;;-143.84;87.14;44142.81;5174432;27;21016;-65
2023/05/03 01:08:37;;;;;;;12.70;10.93;;;;;;;-143.84;87.53;43998.13;5174631;27;20437;-64
2023/05/03 01:11:11;;;;;;;15.23;10.80;;;;;;;-143.84;87.75;43982.91;5174374;27;20429;-65
2023/05/03 01:13:44;;;;;;;21.87;12.63;;;;;;;-143.84;88.46;43826.81;5171216;27;20444;-64
2023/05/03 01:16:19;;;;;;;15.90;12.63;;;;;;;-143.84;89.31;43737.34;5153467;27;20795;-64
2023/05/03 01:18:51;;;;;;;18.20;13.07;;;;;;;-143.84;89.27;43729.75;5152994;27;20481;-64
2023/05/03 01:21:19;;;;;;;20.33;12.33;;;;;;;-143.84;89.40;43758.28;5153133;27;20931;-64
2023/05/03 01:23:57;;;;;;;15.43;10.47;;;;;;;-143.84;89.50;43762.09;5153192;27;20433;-64
2023/05/03 01:26:27;;;;;;;14.97;11.07;;;;;;;-143.84;88.80;43823.00;5153125;27;20489;-64
2023/05/03 01:28:55;;;;;;;16.33;12.07;;;;;;;-143.84;88.56;43855.38;5153165;27;20441;-64
2023/05/03 01:31:28;;;;;;;16.73;11.03;;;;;;;-143.84;88.38;43857.28;5153193;27;20441;-64
2023/05/03 01:34:11;;;;;;;13.53;10.40;;;;;;;-143.84;88.30;43925.78;5152898;27;20494;-64
2023/05/03 01:36:42;;;;;;;15.40;10.77;;;;;;;-143.84;88.10;43948.63;5153220;27;20429;-64
2023/05/03 01:39:14;;;;;;;15.80;10.30;;;;;;;-143.84;87.56;44053.34;5152816;27;20998;-64
2023/05/03 01:41:43;;;;;;;12.67;11.00;;;;;;;-143.84;87.64;44074.28;5152759;27;21203;-64
2023/05/03 01:44:11;;;;;;;13.77;11.50;;;;;;;-143.84;87.65;43984.81;5152443;27;20454;-64
2023/05/03 01:46:43;;;;;;;14.30;11.57;;;;;;;-143.84;87.96;43998.13;5152845;27;20486;-64
2023/05/03 01:49:10;;;;;;;15.40;10.37;;;;;;;-143.84;88.42;43914.38;5152541;27;20430;-64
2023/05/03 01:51:38;;;;;;;16.87;10.50;;;;;;;-143.84;88.79;43843.94;5152620;27;20429;-64
2023/05/03 01:54:05;;;;;;;15.40;11.30;;;;;;;-143.84;89.24;43754.47;5152605;27;20493;-64
2023/05/03 01:56:35;;;;;;;15.90;11.43;;;;;;;-143.84;89.67;43758.28;5152691;27;20487;-64
2023/05/03 01:59:04;;;;;;;14.27;11.50;;;;;;;-143.84;90.35;43727.84;5159772;27;21072;-64
2023/05/03 02:01:31;;;;;;;20.53;12.03;;;;;;;-143.84;90.32;43737.34;5172057;27;20451;-65
2023/05/03 02:03:58;;;;;;;18.03;11.27;;;;;;;-143.84;89.91;43708.81;5173112;27;20464;-65
2023/05/03 02:06:25;;;;;;;14.30;12.80;;;;;;;-143.84;90.04;43724.03;5173192;27;20464;-65
2023/05/03 02:08:53;;;;;;;12.27;10.97;;;;;;;-143.84;90.39;43695.47;5172962;27;20445;-64
2023/05/03 02:11:20;;;;;;;20.27;11.03;;;;;;;-143.84;90.21;43731.66;5172812;27;20437;-64
2023/05/03 02:13:49;;;;;;;18.40;12.97;;;;;;;-143.84;90.32;43752.59;5173528;27;20440;-64
2023/05/03 02:16:18;;;;;;;14.50;12.47;;;;;;;-143.84;91.21;43735.44;5172888;27;20428;-64
2023/05/03 02:18:45;;;;;;;25.03;13.63;;;;;;;-143.84;91.43;43739.25;5172962;27;20540;-64
2023/05/03 02:21:13;;;;;;;19.97;12.87;;;;;;;-143.84;91.77;43731.66;5172808;27;20860;-64
2023/05/03 02:23:40;;;;;;;19.80;12.83;;;;;;;-143.84;91.89;43790.66;5172872;27;20489;-64
2023/05/03 02:26:08;;;;;;;13.50;12.10;;;;;;;-143.84;92.52;43783.03;5172698;27;20441;-65
2023/05/03 02:28:35;;;;;;;21.90;13.87;;;;;;;-143.84;92.72;43794.47;5172906;27;20505;-64
2023/05/03 02:31:05;;;;;;;14.37;12.03;;;;;;;-143.84;92.49;43811.59;5172653;27;20935;-65
2023/05/03 02:33:33;;;;;;;15.80;11.60;;;;;;;-143.84;92.51;43796.34;5172806;27;20439;-64
2023/05/03 02:36:00;;;;;;;15.47;12.70;;;;;;;-143.84;92.46;43809.69;5172730;27;20436;-65
2023/05/03 02:38:27;;;;;;;21.17;11.97;;;;;;;-143.84;92.46;43798.25;5172237;27;20473;-65
2023/05/03 02:40:54;;;;;;;15.33;10.60;;;;;;;-143.84;92.23;43786.84;5172244;27;20437;-65
2023/05/03 02:43:22;;;;;;;13.67;10.23;;;;;;;-143.84;92.28;43773.53;5171997;27;20844;-65
2023/05/03 02:45:49;;;;;;;12.33;10.20;;;;;;;-143.84;91.69;43773.53;5171213;27;20871;-65
2023/05/03 02:48:16;;;;;;;14.20;10.60;;;;;;;-143.84;91.54;43773.53;5171532;27;20880;-65
2023/05/03 02:50:45;;;;;;;16.57;10.50;;;;;;;-143.84;92.02;43786.84;5171438;27;21057;-65
2023/05/03 02:53:12;;;;;;;11.60;10.10;;;;;;;-143.84;91.80;43765.91;5171303;27;20449;-65
2023/05/03 02:55:40;;;;;;;11.17;9.97;;;;;;;-143.84;91.67;43739.25;5171212;27;20476;-65
2023/05/03 02:58:08;;;;;;;24.20;11.10;;;;;;;-143.84;91.69;43744.97;5171801;27;20488;-64
2023/05/03 03:00:36;;;;;;;12.37;11.03;;;;;;;-143.84;91.57;43752.59;5171496;27;20452;-63
2023/05/03 03:03:03;;;;;;;15.50;10.80;;;;;;;-143.84;91.77;43756.38;5172176;27;21308;-63
2023/05/03 03:05:30;;;;;;;17.60;11.57;;;;;;;-143.84;91.93;43779.22;5172097;27;20449;-63
2023/05/03 03:07:58;;;;;;;23.43;11.90;;;;;;;-143.84;91.84;43788.75;5172148;27;20505;-63
2023/05/03 03:10:25;;;;;;;20.50;12.80;;;;;;;-143.84;91.92;43790.66;5172317;27;20456;-63
2023/05/03 03:12:52;;;;;;;17.80;10.97;;;;;;;-143.84;92.26;43794.47;5170990;27;20517;-63
2023/05/03 03:15:20;;;;;;;14.23;11.97;;;;;;;-143.84;92.42;43783.03;5152471;27;20502;-63
2023/05/03 03:17:47;;;;;;;14.43;11.70;;;;;;;-143.84;92.60;43796.34;5150930;27;21016;-63
2023/05/03 03:20:14;;;;;;;14.20;12.03;;;;;;;-143.84;93.25;43819.19;5151105;27;20441;-63
2023/05/03 03:22:42;;;;;;;17.77;11.87;;;;;;;-143.84;93.63;43845.84;5151232;27;20530;-65
2023/05/03 03:25:11;;;;;;;18.27;12.63;;;;;;;-143.84;94.11;43847.75;5150676;27;20429;-65
2023/05/03 03:27:38;;;;;;;16.57;12.30;;;;;;;-143.84;94.42;43861.06;5150369;27;20487;-64
2023/05/03 03:30:07;;;;;;;16.90;13.53;;;;;;;-143.84;94.45;43874.41;5150710;27;20494;-65
2023/05/03 03:32:34;;;;;;;14.90;12.30;;;;;;;-143.84;94.20;43868.69;5150660;27;20520;-65
2023/05/03 03:35:01;;;;;;;15.83;13.03;;;;;;;-143.84;94.44;43883.91;5150578;27;20445;-65
2023/05/03 03:37:28;;;;;;;16.13;13.07;;;;;;;-143.84;94.76;43893.44;5150504;27;20446;-65
2023/05/03 03:39:56;;;;;;;15.40;12.90;;;;;;;-143.84;94.99;43891.53;5150766;27;20530;-65
2023/05/03 03:42:24;;;;;;;18.23;12.87;;;;;;;-143.84;95.23;43912.47;5150252;27;20473;-65
2023/05/03 03:44:51;;;;;;;20.23;14.40;;;;;;;-143.84;95.23;43937.22;5150431;27;20533;-65
2023/05/03 03:47:19;;;;;;;20.40;13.40;;;;;;;-143.84;95.49;43933.41;5150145;27;20435;-65
2023/05/03 03:49:46;;;;;;;20.80;14.37;;;;;;;-143.84;95.72;43952.44;5150424;27;20919;-65
2023/05/03 03:52:13;;;;;;;21.57;12.87;;;;;;;-143.84;95.62;43933.41;5150679;27;20445;-65
2023/05/03 03:54:40;;;;;;;17.27;13.60;;;;;;;-143.84;95.46;43933.41;5150264;27;20473;-65
2023/05/03 03:57:08;;;;;;;18.40;13.70;;;;;;;-143.84;95.87;43944.84;5150368;27;21192;-65
2023/05/03 03:59:36;;;;;;;13.70;12.30;;;;;;;-143.84;95.75;43965.78;5159455;27;20486;-65
2023/05/03 04:02:03;;;;;;;19.60;13.67;;;;;;;-143.84;95.58;43942.94;5157445;27;20441;-65
2023/05/03 04:04:31;;;;;;;16.43;12.70;;;;;;;-143.84;95.71;43965.78;5150466;27;20474;-65
2023/05/03 04:06:58;;;;;;;20.40;12.43;;;;;;;-143.84;95.92;43969.59;5150346;27;20448;-65
2023/05/03 04:09:25;;;;;;;24.53;13.03;;;;;;;-143.84;96.05;43960.06;5150327;27;20494;-64
2023/05/03 04:11:52;;;;;;;18.40;12.80;;;;;;;-143.84;95.76;43952.44;5150191;27;20483;-64
2023/05/03 04:14:19;;;;;;;17.53;13.90;;;;;;;-143.84;96.01;43979.09;5166319;27;21009;-64
2023/05/03 04:16:49;;;;;;;25.23;14.20;;;;;;;-143.84;96.23;43971.47;5170978;27;20441;-65
2023/05/03 04:19:17;;;;;;;23.10;11.90;;;;;;;-143.84;96.30;43979.09;5170721;27;20965;-65
2023/05/03 04:21:44;;;;;;;18.80;12.20;;;;;;;-143.84;95.42;43941.03;5170739;27;20439;-65
2023/05/03 04:24:16;;;;;;;16.47;11.70;;;;;;;-143.84;95.41;43941.03;5172855;27;20435;-65
2023/05/03 04:26:43;;;;;;;17.97;12.10;;;;;;;-143.84;94.94;43906.75;5175338;27;20555;-64
2023/05/03 04:29:11;;;;;;;19.00;11.90;;;;;;;-143.84;94.12;43887.72;5175472;27;20520;-65
2023/05/03 04:31:38;;;;;;;20.00;10.43;;;;;;;-143.84;93.95;43872.50;5175058;27;20436;-64
2023/05/03 04:34:09;;;;;;;11.90;10.60;;;;;;;-143.84;93.97;43893.44;5174915;27;20428;-64
2023/05/03 04:36:36;;;;;;;19.77;10.40;;;;;;;-143.84;93.20;43864.88;5175016;27;20436;-64
2023/05/03 04:39:05;;;;;;;12.03;10.07;;;;;;;-143.84;92.82;43830.63;5174753;27;20479;-64
2023/05/03 04:41:33;;;;;;;11.53;9.10;;;;;;;-143.84;91.97;43802.06;5174799;27;20441;-64
2023/05/03 04:44:00;;;;;;;16.80;9.03;;;;;;;-143.84;91.69;43760.19;5174847;27;20440;-65
2023/05/03 04:46:27;;;;;;;10.70;9.70;;;;;;;-143.84;92.26;43800.16;5174961;27;20437;-64
2023/05/03 04:48:54;;;;;;;14.50;9.60;;;;;;;-143.84;90.75;43739.25;5174578;27;20949;-64
2023/05/03 04:51:22;;;;;;;13.00;9.60;;;;;;;-143.84;90.27;43708.81;5174617;27;20478;-64
2023/05/03 04:53:49;;;;;;;10.43;9.17;;;;;;;-143.84;90.13;43743.06;5174481;27;20808;-64
2023/05/03 04:56:18;;;;;;;11.67;8.83;;;;;;;-143.84;90.24;43705.00;5174722;27;20949;-64
2023/05/03 04:58:45;;;;;;;18.07;9.47;;;;;;;-143.84;89.78;43697.38;5174341;27;20476;-64
2023/05/03 05:01:13;;;;;;;19.27;9.30;;;;;;;-143.84;90.00;43706.91;5174608;27;20576;-65
2023/05/03 05:03:40;;;;;;;13.93;9.40;;;;;;;-143.84;88.93;43701.19;5174558;27;20756;-64
2023/05/03 05:06:08;;;;;;;20.90;9.50;;;;;;;-143.84;88.19;43802.06;5174424;27;20429;-65
2023/05/03 05:08:37;;;;;;;10.40;9.27;;;;;;;-143.84;87.56;43897.25;5174218;27;20793;-65
2023/05/03 05:11:04;;;;;;;12.10;8.87;;;;;;;-143.84;87.18;43956.25;5174384;27;20849;-65
2023/05/03 05:13:31;;;;;;;12.93;8.73;;;;;;;-143.84;87.11;43963.88;5173955;27;20460;-65
2023/05/03 05:15:59;;;;;;;10.43;7.80;;;;;;;-143.84;87.40;43906.75;5174096;27;20922;-65
2023/05/03 05:18:26;;;;;;;11.60;8.20;;;;;;;-143.84;85.14;44437.88;5174419;27;20480;-65
2023/05/03 05:20:53;;;;;;;14.63;8.80;;;;;;;-143.84;84.42;44635.88;5164024;27;20450;-65
2023/05/03 05:23:20;;;;;;;9.33;8.30;;;;;;;-143.84;83.32;44776.78;5153143;27;20497;-65
2023/05/03 05:25:48;;;;;;;11.17;7.43;;;;;;;-143.84;82.82;44807.25;5157593;27;20491;-64
2023/05/03 05:28:15;;;;;;;17.13;8.03;;;;;;;-143.84;82.02;44837.72;5171038;27;20449;-64
2023/05/03 05:30:42;;;;;;;9.03;7.63;;;;;;;-143.84;80.75;44946.25;5174050;27;20490;-64
2023/05/03 05:33:10;;;;;;;10.60;6.30;;;;;;;-143.84;82.14;44871.97;5174101;27;20450;-64
2023/05/03 05:35:37;;;;;;;10.37;8.30;;;;;;;-143.84;81.98;44870.09;5173858;27;20806;-64
2023/05/03 05:38:04;;;;;;;9.63;7.33;;;;;;;-143.84;82.28;44873.88;5173732;27;20432;-64
2023/05/03 05:40:31;;;;;;;9.97;6.93;;;;;;;-143.84;82.40;44849.13;5173600;27;20512;-64
2023/05/03 05:42:59;;;;;;;16.87;7.57;;;;;;;-143.84;82.62;44830.09;5173661;27;20481;-64
2023/05/03 05:45:26;;;;;;;9.80;7.23;;;;;;;-143.84;82.88;44839.63;5173744;27;21107;-64
2023/05/03 05:47:53;;;;;;;8.60;7.30;;;;;;;-143.84;83.39;44797.72;5173710;27;20915;-64
2023/05/03 05:50:21;;;;;;;8.77;7.03;;;;;;;-143.84;83.56;44771.06;5173877;27;20443;-64
2023/05/03 05:52:49;;;;;;;7.97;7.10;;;;;;;-143.84;84.12;44683.50;5173650;27;20437;-64
2023/05/03 05:55:16;;;;;;;9.97;8.33;;;;;;;-143.84;83.94;44717.75;5173465;27;21460;-64
2023/05/03 05:57:42;;;;;;;15.07;8.50;;;;;;;;;;5173652;27;21355;-64
2023/05/03 06:00:14;;;;;;;11.37;7.67;;;;;;;-143.84;83.51;44700.63;5173413;27;20476;-65
2023/05/03 06:02:41;;;;;;;17.13;7.10;;;;;;;-143.84;81.01;44900.53;5173257;27;20441;-64
2023/05/03 06:05:09;;;;;;;9.07;6.60;;;;;;;-143.84;80.40;44969.09;5173340;27;20491;-64
2023/05/03 06:07:36;;;;;;;13.50;7.47;;;;;;;-143.84;80.33;44950.06;5172869;27;20433;-65
2023/05/03 06:10:04;;;;;;;15.63;8.43;;;;;;;-143.84;80.20;44963.38;5173324;27;20457;-65
2023/05/03 06:12:31;;;;;;;9.90;7.20;;;;;;;-143.84;80.97;44917.69;5173171;27;20809;-64
2023/05/03 06:14:58;;;;;;;9.40;7.30;;;;;;;-143.84;80.85;44911.97;5172660;27;20437;-64
2023/05/03 06:17:27;;;;;;;8.00;6.70;;;;;;;-143.84;80.50;44942.44;5172933;27;20422;-64
2023/05/03 06:19:54;;;;;;;8.97;6.37;;;;;;;-143.84;79.65;45001.47;5172810;27;20511;-64
2023/05/03 06:22:21;;;;;;;8.43;6.20;;;;;;;-143.84;78.28;44972.91;5172820;27;20432;-64
2023/05/03 06:24:48;;;;;;;8.40;6.03;;;;;;;-143.84;78.08;45007.19;5173068;27;20795;-65
2023/05/03 06:27:15;;;;;;;11.37;5.77;;;;;;;-143.84;76.76;45014.78;5172826;27;20930;-64
2023/05/03 06:29:43;;;;;;;6.13;5.53;;;;;;;-143.84;76.14;45049.06;5172573;27;20843;-65
2023/05/03 06:32:10;;;;;;;8.23;5.93;;;;;;;-143.84;74.64;45001.47;5172646;27;20447;-64
2023/05/03 06:34:38;;;;;;;5.90;4.93;;;;;;;-143.84;72.88;45049.06;5172504;27;20440;-64
2023/05/03 06:37:06;;;;;;;14.10;5.17;;;;;;;-143.84;74.08;45026.22;5172271;27;20433;-65
2023/05/03 06:39:33;;;;;;;7.50;5.70;;;;;;;-143.84;72.76;45018.59;5172653;27;20575;-64
2023/05/03 06:42:01;;;;;;;6.83;4.90;;;;;;;-143.84;71.32;45039.53;5172494;27;20519;-64
2023/05/03 06:44:28;;;;;;;9.53;6.37;;;;;;;-143.84;71.51;45020.50;5172684;27;20440;-64
2023/05/03 06:46:55;;;;;;;7.60;5.10;;;;;;;-143.84;68.26;45037.66;5172075;27;20428;-64
2023/05/03 06:49:23;;;;;;;4.77;3.63;;;;;;;-143.84;64.37;45049.06;5172428;27;20875;-64
2023/05/03 06:51:51;;;;;;;6.07;4.20;;;;;;;-143.84;66.23;45052.88;5172437;27;20428;-64
2023/05/03 06:54:19;;;;;;;8.40;4.07;;;;;;;-143.84;65.39;45020.50;5172054;27;20536;-64
2023/05/03 06:56:46;;;;;;;12.90;4.17;;;;;;;-143.84;64.99;45035.75;5172264;27;20532;-64
2023/05/03 06:59:13;;;;;;;7.43;3.80;;;;;;;-143.84;64.65;45052.88;5172483;27;20472;-64
2023/05/03 07:01:40;;;;;;;9.03;4.17;;;;;;;-143.84;64.60;45039.53;5171979;27;20433;-65
2023/05/03 07:04:07;;;;;;;7.90;4.20;;;;;;;-143.84;63.12;45043.34;5172152;27;20501;-64
2023/05/03 07:06:34;;;;;;;13.33;4.03;;;;;;;-143.84;64.40;45024.31;5171952;27;20481;-64
2023/05/03 07:09:03;;;;;;;10.30;4.30;;;;;;;-143.84;63.72;45037.66;5170326;27;20978;-64
2023/05/03 07:11:33;;;;;;;5.23;3.87;;;;;;;-143.84;64.04;45052.88;5151091;27;20793;-64
2023/05/03 07:14:00;;;;;;;4.33;3.93;;;;;;;-143.84;63.34;45045.25;5150618;27;20518;-64
2023/05/03 07:16:28;;;;;;;11.67;4.73;;;;;;;-143.84;63.34;45033.84;5150171;27;20545;-64
2023/05/03 07:18:55;;;;;;;5.17;3.70;;;;;;;-143.84;63.99;45054.78;5150713;27;21353;-64
2023/05/03 07:21:22;;;;;;;4.90;3.80;;;;;;;-143.84;62.54;45031.94;5150180;27;20951;-64
2023/05/03 07:23:49;;;;;;;10.77;4.20;;;;;;;-143.84;63.46;45033.84;5150128;27;20433;-64
2023/05/03 07:26:18;;;;;;;16.97;3.90;;;;;;;-143.84;61.32;45035.75;5150672;27;20442;-64
2023/05/03 07:28:45;;;;;;;6.03;3.90;;;;;;;-143.84;59.32;45054.78;5150671;27;20498;-64
2023/05/03 07:31:12;;;;;;;10.83;4.07;;;;;;;-143.84;57.82;45035.75;5150675;27;20490;-64
2023/05/03 07:33:39;;;;;;;4.50;3.30;;;;;;;-143.84;57.87;45062.41;5150702;27;20950;-64
2023/05/03 07:36:07;;;;;;;4.93;3.33;;;;;;;-143.84;57.56;45039.53;5150682;27;20489;-64
2023/05/03 07:38:34;;;;;;;4.20;3.70;;;;;;;-143.84;57.71;45026.22;5150673;27;20441;-64
2023/05/03 07:41:02;;;;;;;9.50;4.50;;;;;;;-143.84;57.53;45047.16;5162182;27;20515;-64
2023/05/03 07:43:31;;;;;;;5.73;3.20;;;;;;;-143.84;56.35;45041.44;5171587;27;20505;-64
2023/05/03 07:45:58;;;;;;;5.97;3.50;;;;;;;-143.84;56.20;45041.44;5171399;27;20939;-64
2023/05/03 07:48:25;;;;;;;6.10;3.53;;;;;;;-143.84;54.41;45010.97;5171665;27;20489;-64
2023/05/03 07:50:53;;;;;;;5.47;3.30;;;;;;;-143.84;52.53;45035.75;5171155;27;20435;-65
2023/05/03 07:53:20;;;;;;;4.93;3.80;;;;;;;-143.84;50.97;45024.31;5171675;27;20891;-65
2023/05/03 07:55:47;;;;;;;16.43;3.57;;;;;;;-143.84;48.59;45020.50;5171203;27;20480;-64
2023/05/03 07:58:14;;;;;;;3.93;2.97;;;;;;;-143.84;47.34;45012.88;5171652;27;20934;-64
2023/05/03 08:00:43;;;;;;;8.47;3.27;;;;;;;-143.84;46.09;45026.22;5175373;27;20477;-64
2023/05/03 08:03:10;;;;;;;5.80;3.20;;;;;;;-143.84;46.56;45007.19;5175628;27;20844;-65
2023/05/03 08:05:37;;;;;;;6.70;3.10;;;;;;;-143.84;46.70;45012.88;5169026;27;20486;-64
2023/05/03 08:08:05;;;;;;;6.77;2.87;;;;;;;-143.84;44.74;45020.50;5154513;27;20441;-65
2023/05/03 08:10:36;;;;;;;7.07;2.60;;;;;;;-143.84;43.29;45010.97;5154436;27;20528;-64
2023/05/03 08:13:04;;;;;;;3.23;2.83;;;;;;;-143.84;43.96;44997.66;5154858;27;20476;-64
2023/05/03 08:15:31;;;;;;;3.77;2.20;;;;;;;-143.84;44.19;45014.78;5154638;27;20441;-64
2023/05/03 08:18:00;;;;;;;4.43;2.63;;;;;;;-143.84;43.27;45014.78;5153999;27;20438;-64
2023/05/03 08:20:28;;;;;;;3.13;2.33;;;;;;;-143.84;43.87;44978.63;5159459;27;20473;-59
2023/05/03 08:22:55;;;;;;;3.43;2.40;;;;;;;-143.84;43.81;45001.47;5154776;27;20453;-59
2023/05/03 08:25:23;;;;;;;5.17;2.70;;;;;;;-143.84;44.33;44982.41;5154588;27;20502;-59
2023/05/03 08:27:51;;;;;;;7.63;3.00;;;;;;;-143.84;44.84;45009.09;5173623;27;20445;-59
2023/05/03 08:30:18;;;;;;;11.10;3.97;;;;;;;-143.84;44.55;45028.13;5175027;27;20504;-59
2023/05/03 08:32:45;;;;;;;7.63;2.70;;;;;;;-143.84;44.97;45030.03;5174684;27;20441;-59
2023/05/03 08:35:14;;;;;;;7.00;3.13;;;;;;;-143.84;43.78;45033.84;5175551;27;20440;-59
2023/05/03 08:37:42;;;;;;;6.50;3.70;;;;;;;-143.84;44.81;45081.44;5175091;27;20444;-59
2023/05/03 08:40:12;;;;;;;5.80;3.57;;;;;;;-143.84;44.35;45030.03;5174885;27;20475;-59
2023/05/03 08:42:41;;;;;;;3.40;2.87;;;;;;;-143.84;44.65;45016.69;5175026;27;20440;-59
2023/05/03 08:45:11;;;;;;;7.70;3.30;;;;;;;-143.84;44.53;45026.22;5174939;27;20429;-59
2023/05/03 08:47:39;;;;;;;7.83;3.77;;;;;;;-143.84;46.00;44999.56;5174403;27;20447;-59
2023/05/03 08:50:08;;;;;;;3.67;3.07;;;;;;;-143.84;45.08;45016.69;5174650;27;20933;-59
2023/05/03 08:52:39;;;;;;;9.87;3.87;;;;;;;-143.84;45.81;45033.84;5174570;27;20488;-59
2023/05/03 08:55:08;;;;;;;3.70;2.70;;;;;;;-143.84;46.69;45037.66;5174747;27;20476;-59
2023/05/03 08:57:35;;;;;;;15.20;3.60;;;;;;;-143.84;47.33;45035.75;5174556;27;20910;-59
2023/05/03 09:00:07;;;;;;;12.55;4.40;;;;;;;-143.84;50.74;45014.78;5173204;27;20441;-59
2023/05/03 09:02:37;;;;;;;7.23;3.10;;;;;;;-143.84;47.89;45045.25;5174167;27;20251;-58
2023/05/03 09:05:05;;;;;;;3.30;2.90;;;;;;;-143.84;46.00;45007.19;5174468;27;20520;-59
2023/05/03 09:07:33;;;;;;;12.27;2.67;;;;;;;-143.84;45.98;45043.34;5174419;27;20468;-58
2023/05/03 09:10:01;;;;;;;6.30;3.03;;;;;;;-143.84;46.28;45030.03;5173768;27;20446;-58
2023/05/03 09:12:37;;;;;;;2.60;2.27;;;;;;;-143.84;46.82;45014.78;5174429;27;20871;-59
2023/05/03 09:15:05;;;;;;;7.50;3.27;;;;;;;-143.84;45.79;45022.41;5174246;27;20690;-58
2023/05/03 09:17:32;;;;;;;5.63;2.50;;;;;;;-143.84;45.12;45018.59;5174083;27;20439;-59
2023/05/03 09:20:00;;;;;;;7.00;3.30;;;;;;;-143.84;44.81;45039.53;5174087;27;20468;-59
2023/05/03 09:22:28;;;;;;;6.20;3.00;;;;;;;-143.84;45.12;44993.84;5174416;27;20536;-58
2023/05/03 09:24:57;;;;;;;4.33;2.60;;;;;;;-143.84;45.83;45010.97;5174195;27;20469;-59
2023/05/03 09:27:26;;;;;;;9.50;2.60;;;;;;;-143.84;44.22;45033.84;5164303;27;20442;-59
2023/05/03 09:29:55;;;;;;;2.93;2.63;;;;;;;-143.84;44.47;45031.94;5155832;27;20468;-59
2023/05/03 09:32:23;;;;;;;4.53;2.40;;;;;;;-143.84;41.68;45009.09;5173625;27;21045;-59
2023/05/03 09:34:53;;;;;;;3.43;3.10;;;;;;;-143.84;43.26;45014.78;5173900;27;20443;-59
2023/05/03 09:37:37;;;;;;;5.40;2.40;;;;;;;-143.84;44.21;45005.28;5173727;27;20841;-58
2023/05/03 09:40:09;;;;;;;5.10;3.00;;;;;;;-143.84;43.73;44997.66;5173802;27;20473;-59
2023/05/03 09:42:37;;;;;;;4.50;3.00;;;;;;;-143.84;43.44;45012.88;5173806;27;20434;-59
2023/05/03 09:45:07;;;;;;;6.63;2.33;;;;;;;-143.84;43.92;45007.19;5173834;27;20501;-59
2023/05/03 09:47:50;;;;;;;3.20;2.80;;;;;;;-143.84;45.15;45014.78;5173742;27;20816;-59
2023/05/03 09:50:17;;;;;;;5.03;2.43;;;;;;;-143.84;44.83;45018.59;5173643;27;21007;-59
2023/05/03 09:52:45;;;;;;;7.80;2.97;;;;;;;-143.84;44.33;45016.69;5173336;27;20490;-59
2023/05/03 09:55:13;;;;;;;8.53;2.43;;;;;;;-143.84;44.96;45028.13;5173388;27;20478;-58
2023/05/03 09:57:46;;;;;;;4.87;2.63;;;;;;;-143.84;43.97;45010.97;5173140;27;20490;-59
2023/05/03 10:00:15;;;;;;;5.67;2.50;;;;;;;-143.84;44.20;45022.41;5172995;27;20472;-58
2023/05/03 10:02:44;;;;;;;2.23;1.93;;;;;;;-143.84;44.64;45020.50;5173592;27;20432;-59
2023/05/03 10:05:12;;;;;;;3.00;2.77;;;;;;;-143.84;43.96;45001.47;5173674;27;20441;-58
2023/05/03 10:07:42;;;;;;;5.30;2.77;;;;;;;-143.84;44.68;44999.56;5173341;27;20424;-59
2023/05/03 10:10:09;;;;;;;8.10;2.33;;;;;;;-143.84;43.96;44988.13;5173077;27;20437;-59
2023/05/03 10:12:38;;;;;;;5.63;3.10;;;;;;;-143.84;44.61;45030.03;5172630;27;20464;-58
2023/05/03 10:15:10;;;;;;;3.10;2.60;;;;;;;-143.84;43.87;45033.84;5172805;27;20472;-59
2023/05/03 10:17:40;;;;;;;12.07;2.30;;;;;;;-143.84;43.18;45010.97;5173345;27;20445;-58
2023/05/03 10:20:17;;;;;;;6.23;2.20;;;;;;;-143.84;44.01;45026.22;5172917;27;20996;-58
2023/05/03 10:23:09;;;;;;;8.63;2.43;;;;;;;-143.84;44.26;45014.78;5171977;27;20527;-58
2023/05/03 10:25:38;;;;;;;3.90;2.80;;;;;;;-143.84;43.98;45018.59;5173133;27;20473;-58
2023/05/03 10:28:06;;;;;;;6.10;2.90;;;;;;;-143.84;43.50;45024.31;5158884;27;20511;-59
2023/05/03 10:30:36;;;;;;;5.57;1.97;;;;;;;-143.84;42.96;45012.88;5159344;27;20440;-58
2023/05/03 10:33:31;;;;;;;2.73;2.53;;;;;;;-143.84;44.46;45018.59;5161906;27;20456;-58
2023/05/03 10:36:00;;;;;;;5.20;2.43;;;;;;;-143.84;43.39;45028.13;5164979;27;20559;-58
2023/05/03 10:38:29;;;;;;;4.33;2.90;;;;;;;-143.84;43.71;45014.78;5162675;27;20536;-59
2023/05/03 10:40:57;;;;;;;2.43;1.93;;;;;;;-143.84;44.13;45012.88;5163066;27;20480;-59
2023/05/03 10:43:45;;;;;;;4.80;2.70;;;;;;;-143.84;44.37;45014.78;5167494;27;20456;-58
2023/05/03 10:46:34;;;;;;;5.27;2.57;;;;;;;-143.84;44.14;45020.50;5160321;27;20444;-59
2023/05/03 10:49:23;;;;;;;15.23;3.23;;;;;;;-143.84;44.02;45030.03;5162498;27;20548;-58
2023/05/03 10:51:50;;;;;;;7.00;2.17;;;;;;;-143.84;42.25;44997.66;5146898;27;20521;-59
2023/05/03 10:54:18;;;;;;;7.17;2.57;;;;;;;-143.84;40.94;45020.50;5151172;27;20480;-58
2023/05/03 10:56:52;;;;;;;3.50;2.27;;;;;;;-143.84;39.52;44988.13;5151401;27;20468;-58
2023/05/03 10:59:20;;;;;;;9.73;2.50;;;;;;;-143.84;40.43;45009.09;5151172;27;20467;-58
2023/05/03 11:01:51;;;;;;;7.47;2.73;;;;;;;-143.84;39.72;45026.22;5151170;27;20842;-58
2023/05/03 11:04:34;;;;;;;6.40;2.70;;;;;;;-143.84;41.82;45005.28;5151366;27;21426;-58
2023/05/03 11:07:01;;;;;;;9.13;2.93;;;;;;;-143.84;42.05;45049.06;5151274;27;20425;-58
2023/05/03 11:09:33;;;;;;;3.60;2.10;;;;;;;-143.84;43.04;44997.66;5151122;27;20483;-58
2023/05/03 11:12:04;;;;;;;9.93;2.77;;;;;;;-143.84;42.84;45035.75;5151219;27;21344;-58
2023/05/03 11:14:31;;;;;;;8.27;2.40;;;;;;;-143.84;45.21;45030.03;5151080;27;20425;-58
2023/05/03 11:17:00;;;;;;;11.03;2.80;;;;;;;-143.84;45.90;45064.31;5150777;27;20433;-59